Time;durP1;ratioP1;P1;durP2;ratioP2;P2;SDS_P1;SDS_P2;PMS_P1;PMS_P2;Temp;Humidity;BMP_temperature;BMP_pressure;BME280_temperature;BME280_humidity;BME280_pressure;Samples;Min_cycle;Max_cycle;Signal;HPM_P1;HPM_P2
2022/05/21 00:02:15;;;;;;;2.97;2.55;;;;;;;19.48;98.13;99705.22;5037964;28;20063;-85
2022/05/21 00:04:41;;;;;;;2.58;2.28;;;;;;;19.51;99.68;99690.44;5034892;28;20034;-84
2022/05/21 00:07:09;;;;;;;3.17;2.45;;;;;;;19.55;99.29;99707.44;5034962;28;20525;-85
2022/05/21 00:09:35;;;;;;;2.40;2.20;;;;;;;19.43;99.26;99695.31;5018291;28;20033;-84
2022/05/21 00:12:06;;;;;;;2.72;2.20;;;;;;;19.45;99.13;99698.44;5036124;28;20029;-85
2022/05/21 00:14:34;;;;;;;3.92;2.05;;;;;;;19.48;98.46;99696.56;5018353;28;20526;-84
2022/05/21 00:17:01;;;;;;;2.67;2.35;;;;;;;19.46;98.88;99687.66;5034714;28;20031;-85
2022/05/21 00:19:28;;;;;;;3.78;2.42;;;;;;;19.35;98.82;99656.88;5031177;28;20116;-85
2022/05/21 00:21:55;;;;;;;3.38;1.92;;;;;;;19.35;98.50;99669.19;5014398;28;20116;-83
2022/05/21 00:24:20;;;;;;;4.05;2.67;;;;;;;19.38;98.62;99694.09;5014405;28;20037;-83
2022/05/21 00:26:47;;;;;;;2.75;2.00;;;;;;;19.26;98.69;99672.53;5015986;28;20028;-85
2022/05/21 00:29:14;;;;;;;2.67;2.47;;;;;;;19.30;98.03;99689.53;5014429;28;20096;-85
2022/05/21 00:31:41;;;;;;;5.65;2.50;;;;;;;19.28;98.96;99695.09;5047729;28;20060;-85
2022/05/21 00:34:08;;;;;;;4.10;1.85;;;;;;;19.25;98.52;99699.06;5054293;28;20056;-85
2022/05/21 00:36:33;;;;;;;2.42;2.03;;;;;;;19.19;98.78;99704.19;5040805;28;20056;-86
2022/05/21 00:39:01;;;;;;;3.08;1.88;;;;;;;19.24;98.68;99697.53;5040979;28;20512;-84
2022/05/21 00:41:26;;;;;;;2.10;1.90;;;;;;;19.20;98.38;99692.06;5057850;28;20108;-85
2022/05/21 00:43:57;;;;;;;2.65;1.98;;;;;;;19.27;98.19;99693.53;5055353;28;20104;-83
2022/05/21 00:46:27;;;;;;;4.20;2.25;;;;;;;19.21;98.64;99702.28;5004446;28;20470;-83
2022/05/21 00:48:58;;;;;;;2.60;2.17;;;;;;;19.24;98.86;99691.75;5054932;28;20485;-83
2022/05/21 00:51:38;;;;;;;3.90;2.00;;;;;;;19.21;98.55;99692.84;5055087;28;20040;-84
2022/05/21 00:54:13;;;;;;;3.40;1.75;;;;;;;19.23;99.76;99707.53;5020691;28;20025;-84
2022/05/21 00:56:43;;;;;;;2.80;1.95;;;;;;;19.28;99.07;99713.19;5037048;28;20119;-84
2022/05/21 01:02:04;;;;;;;3.85;1.85;;;;;;;19.26;98.42;99720.84;5039642;28;20147;-84
2022/05/21 01:04:38;;;;;;;2.17;1.98;;;;;;;19.32;99.11;99713.63;5037042;28;20081;-83
2022/05/21 01:07:15;;;;;;;3.22;1.67;;;;;;;19.37;99.17;99720.63;5036943;28;20029;-83
2022/05/21 01:09:50;;;;;;;3.00;1.73;;;;;;;19.38;98.55;99714.31;5020523;28;20389;-84
2022/05/21 01:12:15;;;;;;;2.85;1.98;;;;;;;19.39;98.15;99712.19;5020150;28;20071;-83
2022/05/21 01:14:51;;;;;;;2.53;1.83;;;;;;;19.38;98.10;99719.31;5036529;28;20056;-83
2022/05/21 01:17:33;;;;;;;2.25;2.05;;;;;;;19.40;97.94;99726.06;5037095;28;20051;-84
2022/05/21 01:20:05;;;;;;;3.63;1.85;;;;;;;19.30;97.70;99719.19;5055750;28;20025;-84
2022/05/21 01:22:53;;;;;;;2.97;2.03;;;;;;;19.35;97.87;99721.19;5055427;28;20064;-83
2022/05/21 01:25:24;;;;;;;4.05;2.70;;;;;;;19.39;98.00;99723.72;5022650;28;20119;-83
2022/05/21 01:27:51;;;;;;;3.50;2.83;;;;;;;19.31;97.32;99719.97;5038256;28;20037;-83
2022/05/21 01:30:25;;;;;;;2.20;2.00;;;;;;;19.28;97.53;99727.63;5035161;28;20138;-84
2022/05/21 01:32:51;;;;;;;2.20;2.00;;;;;;;19.16;97.35;99723.41;5020090;28;20033;-83
2022/05/21 01:35:20;;;;;;;2.20;1.95;;;;;;;19.14;97.02;99736.84;5054026;28;20036;-84
2022/05/21 01:37:47;;;;;;;2.35;2.00;;;;;;;19.15;97.11;99739.16;5052626;28;20060;-84
2022/05/21 01:40:17;;;;;;;1.80;1.63;;;;;;;19.18;97.34;99743.84;5036521;28;20040;-83
2022/05/21 01:44:37;;;;;;;1.85;1.70;;;;;;;19.22;96.07;99747.19;5036561;28;20044;-83
2022/05/21 01:45:29;;;;;;;2.75;1.55;;;;;;;19.20;95.26;99744.06;5050838;28;20060;-83
2022/05/21 01:47:54;;;;;;;2.88;1.67;;;;;;;19.19;94.26;99730.94;5035978;28;20422;-84
2022/05/21 01:50:21;;;;;;;1.85;1.67;;;;;;;19.23;95.21;99737.19;5036324;28;20025;-85
2022/05/21 01:52:48;;;;;;;1.77;1.67;;;;;;;19.13;94.97;99723.72;5054081;28;20029;-85
2022/05/21 01:55:14;;;;;;;1.92;1.70;;;;;;;19.27;94.97;99739.75;5036267;28;20036;-84
2022/05/21 01:57:43;;;;;;;2.35;1.38;;;;;;;19.25;94.52;99751.84;5019787;28;20033;-84
2022/05/21 02:00:10;;;;;;;2.35;1.58;;;;;;;19.14;93.99;99726.03;5052484;28;20029;-84
2022/05/21 02:02:38;;;;;;;1.95;1.35;;;;;;;19.37;92.86;99773.41;5035990;28;20035;-84
2022/05/21 02:05:06;;;;;;;2.05;1.27;;;;;;;19.35;92.91;99770.28;5053901;28;20036;-84
2022/05/21 02:07:32;;;;;;;1.70;1.45;;;;;;;19.35;91.59;99769.50;5053650;28;20032;-84
2022/05/21 02:09:58;;;;;;;2.63;1.58;;;;;;;19.31;92.05;99758.28;5036189;28;20025;-85
2022/05/21 02:12:24;;;;;;;1.98;1.60;;;;;;;19.38;91.65;99777.88;5034567;28;20120;-84
2022/05/21 02:14:51;;;;;;;5.90;1.58;;;;;;;19.46;91.45;99785.88;5035877;28;20457;-85
2022/05/21 02:17:17;;;;;;;1.83;1.67;;;;;;;19.31;91.19;99774.84;5036252;28;20148;-85
2022/05/21 02:19:44;;;;;;;4.72;1.63;;;;;;;19.46;91.05;99804.00;5053241;28;20115;-84
2022/05/21 02:22:10;;;;;;;1.88;1.48;;;;;;;19.45;90.87;99779.31;5052110;28;20106;-85
2022/05/21 02:24:37;;;;;;;3.22;1.98;;;;;;;19.46;90.76;99786.66;5035695;28;20116;-85
2022/05/21 02:27:03;;;;;;;3.47;1.60;;;;;;;19.48;90.56;99807.13;5034991;28;20035;-85
2022/05/21 02:29:37;;;;;;;1.77;1.50;;;;;;;19.47;90.73;99817.13;5035822;28;20040;-86
2022/05/21 02:32:04;;;;;;;5.03;2.10;;;;;;;19.40;90.36;99804.06;5015650;28;20054;-86
2022/05/21 02:34:44;;;;;;;2.58;1.90;;;;;;;19.53;89.44;99812.03;5013283;28;20033;-86
2022/05/21 02:39:55;;;;;;;3.63;1.83;;;;;;;19.47;89.23;99828.69;5013745;28;20083;-86
2022/05/21 02:45:07;;;;;;;4.57;2.17;;;;;;;19.41;89.06;99825.06;5013288;28;20137;-86
2022/05/21 02:47:34;;;;;;;2.40;2.03;;;;;;;19.47;89.10;99843.13;5014286;28;20026;-87
2022/05/21 02:50:01;;;;;;;2.42;2.08;;;;;;;19.49;88.92;99831.78;5012688;28;20026;-88
2022/05/21 02:52:28;;;;;;;2.22;1.75;;;;;;;19.51;87.68;99848.56;4996989;28;20034;-88
2022/05/21 02:54:54;;;;;;;5.60;2.33;;;;;;;19.55;87.88;99846.91;5012832;28;20022;-88
2022/05/21 02:57:21;;;;;;;2.80;2.08;;;;;;;19.39;87.78;99837.16;5013854;28;20042;-88
2022/05/21 02:59:49;;;;;;;18.98;2.83;;;;;;;19.40;87.57;99864.72;5013935;28;20018;-87
2022/05/21 03:02:15;;;;;;;3.38;2.30;;;;;;;19.18;87.75;99841.25;5014086;28;20038;-87
2022/05/21 03:04:41;;;;;;;4.65;2.45;;;;;;;19.14;88.63;99837.91;5010253;28;20065;-87
2022/05/21 03:07:06;;;;;;;2.90;2.33;;;;;;;19.22;88.70;99853.25;4996232;28;20446;-87
2022/05/21 03:12:26;;;;;;;3.10;2.70;;;;;;;19.07;88.86;99870.28;5013759;28;20052;-87
2022/05/21 03:14:53;;;;;;;3.40;2.53;;;;;;;18.96;88.92;99866.25;5013429;28;20483;-86
2022/05/21 03:17:20;;;;;;;2.65;2.45;;;;;;;18.99;88.64;99881.72;5010320;28;20034;-87
2022/05/21 03:19:47;;;;;;;3.25;2.75;;;;;;;18.91;88.51;99881.53;5020466;28;20028;-87
2022/05/21 03:22:12;;;;;;;2.72;2.50;;;;;;;18.82;87.42;99892.72;5022958;28;20049;-87
2022/05/21 03:24:39;;;;;;;2.78;2.55;;;;;;;18.92;86.68;99897.53;5013786;28;20467;-86
2022/05/21 03:27:07;;;;;;;2.40;2.22;;;;;;;18.56;85.38;99870.25;5032031;28;20068;-86
2022/05/21 03:29:47;;;;;;;3.53;2.17;;;;;;;18.62;85.38;99884.59;5025843;28;20034;-86
2022/05/21 03:32:13;;;;;;;3.70;1.95;;;;;;;18.49;85.07;99883.19;5011968;28;20486;-85
2022/05/21 03:34:41;;;;;;;1.73;1.63;;;;;;;18.37;84.23;99880.97;4994623;28;20033;-86
2022/05/21 03:37:06;;;;;;;2.03;1.83;;;;;;;18.36;85.50;99888.06;5012047;28;20037;-85
2022/05/21 03:39:34;;;;;;;2.05;1.85;;;;;;;18.43;85.10;99911.31;4997813;28;20029;-85
2022/05/21 03:42:01;;;;;;;4.60;1.92;;;;;;;18.39;85.16;99938.91;5032562;28;20110;-85
2022/05/21 03:44:27;;;;;;;2.70;2.00;;;;;;;18.32;86.11;99922.19;5036243;28;20025;-84
2022/05/21 03:46:54;;;;;;;2.72;1.95;;;;;;;18.31;85.83;99941.59;5033444;28;20038;-86
2022/05/21 03:49:20;;;;;;;1.70;1.60;;;;;;;18.28;85.97;99960.00;5014803;28;20034;-86
2022/05/21 03:51:48;;;;;;;1.60;1.40;;;;;;;18.15;81.78;99959.88;4998738;28;20112;-86
2022/05/21 03:54:13;;;;;;;2.05;1.38;;;;;;;18.07;81.22;99942.38;5014990;28;20060;-87
2022/05/21 03:56:42;;;;;;;2.72;0.90;;;;;;;18.17;79.35;99973.72;5015180;28;20471;-87
2022/05/21 03:59:07;;;;;;;2.05;1.00;;;;;;;18.07;78.25;99974.09;4998698;28;20021;-86
2022/05/21 04:01:33;;;;;;;1.10;1.05;;;;;;;18.03;79.45;99978.59;4998290;28;20048;-86
2022/05/21 04:03:58;;;;;;;0.70;0.65;;;;;;;18.05;79.46;99967.31;5015005;28;20041;-87
2022/05/21 04:06:26;;;;;;;0.60;0.60;;;;;;;18.11;79.01;99980.34;5016963;28;20021;-87
2022/05/21 04:08:53;;;;;;;0.80;0.80;;;;;;;18.00;77.51;99971.81;5014496;28;20536;-87
2022/05/21 04:11:19;;;;;;;2.42;1.10;;;;;;;18.07;77.45;99984.84;5035047;28;20017;-87
2022/05/21 04:13:45;;;;;;;0.90;0.90;;;;;;;18.03;78.45;99988.03;5035359;28;20076;-87
2022/05/21 04:16:11;;;;;;;1.15;1.05;;;;;;;18.03;79.52;99978.59;5017122;28;20064;-87
2022/05/21 04:18:39;;;;;;;1.13;1.10;;;;;;;17.87;77.35;99983.19;5018226;28;20120;-86
2022/05/21 04:21:07;;;;;;;0.85;0.82;;;;;;;17.87;77.87;100009.13;5034808;28;20038;-86
2022/05/21 04:23:32;;;;;;;1.23;1.15;;;;;;;17.82;77.95;100004.19;5036138;28;20466;-84
2022/05/21 04:26:02;;;;;;;3.45;1.00;;;;;;;17.91;76.71;100018.25;5035712;28;20029;-84
2022/05/21 04:28:27;;;;;;;0.90;0.90;;;;;;;17.81;76.68;99996.13;5036367;28;20489;-85
2022/05/21 04:30:52;;;;;;;1.35;1.05;;;;;;;17.72;76.25;100008.72;5033941;28;20046;-85
2022/05/21 04:33:18;;;;;;;1.00;0.77;;;;;;;17.70;76.32;100025.78;5017708;28;20029;-79
2022/05/21 04:38:46;;;;;;;0.73;0.73;;;;;;;17.76;76.55;100020.75;5034890;28;20036;-80
2022/05/21 04:41:11;;;;;;;1.45;1.35;;;;;;;17.74;75.41;100037.03;5017585;28;20030;-80
2022/05/21 04:43:38;;;;;;;1.55;1.20;;;;;;;17.77;75.50;100033.06;5032897;28;20083;-81
2022/05/21 04:46:04;;;;;;;0.82;0.82;;;;;;;17.64;76.07;100031.59;5033923;28;20030;-80
2022/05/21 04:48:31;;;;;;;3.10;1.13;;;;;;;17.76;77.11;100043.78;5035062;28;20540;-82
2022/05/21 04:51:16;;;;;;;1.38;1.27;;;;;;;17.65;76.38;100030.28;5017104;28;20064;-85
2022/05/21 04:53:43;;;;;;;1.38;1.27;;;;;;;17.58;76.60;100033.69;5034120;28;20036;-82
2022/05/21 04:56:09;;;;;;;1.20;1.10;;;;;;;17.73;77.30;100036.22;5017191;28;20471;-83
2022/05/21 04:58:36;;;;;;;1.15;0.95;;;;;;;17.52;76.36;100058.09;5035480;28;20022;-79
2022/05/21 05:01:15;;;;;;;2.40;1.00;;;;;;;17.64;75.00;100046.00;5034748;28;20037;-78
2022/05/21 05:03:41;;;;;;;1.13;1.00;;;;;;;17.80;74.66;100049.28;5033408;28;20116;-80
2022/05/21 05:06:08;;;;;;;0.70;0.70;;;;;;;17.76;74.50;100048.81;5033500;28;20032;-79
2022/05/21 05:08:36;;;;;;;0.65;0.65;;;;;;;17.48;72.67;100049.75;5017259;28;20029;-83
2022/05/21 05:11:08;;;;;;;3.10;0.80;;;;;;;17.73;72.17;100076.56;5034625;28;20080;-84
2022/05/21 05:13:37;;;;;;;;;;;;;;;17.75;72.80;100087.56;5017436;28;20021;-79
2022/05/21 05:16:03;;;;;;;0.60;0.60;;;;;;;17.76;71.88;100081.25;5034691;28;19913;-80
2022/05/21 05:18:31;;;;;;;0.50;0.50;;;;;;;17.67;72.87;100096.00;5034746;28;20049;-80
2022/05/21 05:20:58;;;;;;;2.00;0.60;;;;;;;17.73;72.52;100070.03;5035216;28;20112;-80
2022/05/21 05:23:24;;;;;;;0.47;0.47;;;;;;;17.73;70.96;100105.38;5031897;28;20095;-78
2022/05/21 05:25:49;;;;;;;2.80;0.50;;;;;;;17.87;70.54;100095.59;5016633;28;20033;-81
2022/05/21 05:28:20;;;;;;;0.68;0.63;;;;;;;17.99;70.10;100076.91;5034359;28;20451;-82
2022/05/21 05:30:49;;;;;;;0.70;0.47;;;;;;;18.07;69.18;100085.72;5017571;28;20046;-80
2022/05/21 05:33:30;;;;;;;0.52;0.47;;;;;;;17.94;67.68;100085.59;5001178;28;20064;-81
2022/05/21 05:35:55;;;;;;;0.50;0.50;;;;;;;17.93;68.29;100087.69;5033526;28;20112;-80
2022/05/21 05:38:23;;;;;;;0.55;0.55;;;;;;;17.88;68.19;100108.69;5012146;28;20176;-81
2022/05/21 05:40:51;;;;;;;2.28;0.63;;;;;;;17.96;67.66;100080.06;4997009;28;20034;-83
2022/05/21 05:43:18;;;;;;;0.40;0.40;;;;;;;17.83;68.01;100109.50;5030247;28;20371;-80
2022/05/21 05:45:53;;;;;;;0.60;0.60;;;;;;;17.87;67.63;100084.06;5013778;28;20101;-81
2022/05/21 05:48:19;;;;;;;0.40;0.40;;;;;;;17.93;66.03;100084.81;5004677;28;20030;-80
2022/05/21 05:50:47;;;;;;;1.20;0.40;;;;;;;17.93;65.44;100101.31;5034873;28;20017;-82
2022/05/21 05:53:13;;;;;;;2.05;0.50;;;;;;;17.98;65.91;100092.63;5016229;28;20076;-79
2022/05/21 05:55:41;;;;;;;0.73;0.60;;;;;;;17.99;65.01;100099.19;5031769;28;20455;-80
2022/05/21 06:01:05;;;;;;;0.52;0.52;;;;;;;17.92;65.85;100117.03;5032724;28;20045;-79
2022/05/21 06:03:36;;;;;;;;;;;;;;;18.01;64.29;100110.94;5016598;28;20033;-79
2022/05/21 06:06:06;;;;;;;0.50;0.50;;;;;;;18.26;65.15;100111.78;5034402;28;20338;-80
2022/05/21 06:08:32;;;;;;;1.05;0.70;;;;;;;18.48;63.58;100100.84;5037857;28;20132;-85
2022/05/21 06:10:59;;;;;;;3.28;0.60;;;;;;;18.36;63.41;100113.78;5021838;28;20029;-86
2022/05/21 06:13:26;;;;;;;2.13;0.55;;;;;;;18.32;61.75;100126.94;5044284;28;20056;-87
2022/05/21 06:15:53;;;;;;;0.43;0.43;;;;;;;18.38;62.22;100122.69;5045179;28;20194;-84
2022/05/21 06:18:23;;;;;;;6.90;0.77;;;;;;;18.61;62.54;100125.38;5044107;28;20398;-83
2022/05/21 06:20:51;;;;;;;1.98;0.70;;;;;;;19.05;62.26;100113.34;5041916;28;20032;-82
2022/05/21 06:23:18;;;;;;;0.50;0.45;;;;;;;20.40;57.34;100115.91;5036262;28;20053;-85
2022/05/21 06:25:44;;;;;;;0.73;0.55;;;;;;;21.88;55.06;100119.22;5032194;28;20422;-83
2022/05/21 06:28:10;;;;;;;2.47;0.70;;;;;;;23.51;46.89;100117.31;5032073;28;20045;-83
2022/05/21 06:30:39;;;;;;;0.47;0.40;;;;;;;25.02;43.75;100115.22;5037782;28;20055;-79
2022/05/21 06:33:18;;;;;;;0.30;0.30;;;;;;;26.72;38.36;100119.88;5038544;28;20037;-83
2022/05/21 06:35:50;;;;;;;0.40;0.40;;;;;;;27.44;35.78;100116.63;5073737;28;20028;-83
2022/05/21 06:38:16;;;;;;;2.63;0.65;;;;;;;27.24;34.29;100144.16;5039169;28;20047;-84
2022/05/21 06:40:42;;;;;;;1.58;0.47;;;;;;;27.02;33.96;100116.69;5022157;28;20444;-76
2022/05/21 06:43:09;;;;;;;0.30;0.30;;;;;;;28.17;34.88;100116.13;5054872;28;20481;-78
2022/05/21 06:45:35;;;;;;;0.20;0.20;;;;;;;29.27;32.41;100135.19;5072353;28;20052;-76
2022/05/21 06:48:05;;;;;;;2.00;0.38;;;;;;;30.11;29.23;100124.69;5054815;28;20070;-78
2022/05/21 06:50:40;;;;;;;1.80;0.47;;;;;;;30.54;27.71;100135.25;5054835;28;20040;-76
2022/05/21 06:53:06;;;;;;;0.90;0.50;;;;;;;30.98;27.64;100116.31;5071313;28;20040;-80
2022/05/21 06:55:32;;;;;;;1.85;0.40;;;;;;;31.25;27.17;100152.13;5072688;28;20504;-80
2022/05/21 06:57:58;;;;;;;0.20;0.20;;;;;;;30.42;26.31;100131.41;5072485;28;20052;-79
2022/05/21 07:00:33;;;;;;;1.17;0.40;;;;;;;30.31;26.90;100153.41;5042902;28;20028;-79
2022/05/21 07:02:59;;;;;;;0.20;0.20;;;;;;;30.51;26.94;100133.56;5072881;28;20548;-76
2022/05/21 07:08:24;;;;;;;2.15;0.60;;;;;;;31.46;26.01;100137.41;5023861;28;20385;-74
2022/05/21 07:10:52;;;;;;;2.38;0.55;;;;;;;31.11;26.91;100148.94;5026218;28;20374;-75
2022/05/21 07:13:18;;;;;;;0.30;0.30;;;;;;;31.99;26.28;100138.81;5052644;28;20245;-75
2022/05/21 07:15:43;;;;;;;0.95;0.60;;;;;;;32.64;25.64;100146.06;5035700;28;20025;-77
2022/05/21 07:18:09;;;;;;;1.85;0.52;;;;;;;32.98;23.54;100135.66;5035696;28;20021;-75
2022/05/21 07:20:34;;;;;;;1.02;0.40;;;;;;;32.88;22.47;100140.94;5035642;28;20027;-76
2022/05/21 07:23:00;;;;;;;0.30;0.30;;;;;;;32.74;22.92;100154.78;5035632;28;20029;-74
2022/05/21 07:25:30;;;;;;;1.55;0.38;;;;;;;32.36;23.31;100174.47;5053417;28;20083;-77
2022/05/21 07:27:56;;;;;;;1.42;0.30;;;;;;;32.42;24.21;100157.16;5020298;28;20039;-76
2022/05/21 07:30:22;;;;;;;1.27;0.25;;;;;;;32.17;23.29;100154.00;5037094;28;20037;-76
2022/05/21 07:32:50;;;;;;;2.55;0.47;;;;;;;31.55;23.80;100168.94;5054063;28;20033;-75
2022/05/21 07:35:18;;;;;;;0.50;0.50;;;;;;;32.07;24.96;100185.75;5037561;28;20162;-77
2022/05/21 07:37:44;;;;;;;1.42;0.50;;;;;;;32.79;24.10;100166.22;5037069;28;20150;-76
2022/05/21 07:40:16;;;;;;;0.93;0.50;;;;;;;32.83;23.26;100181.22;5054849;28;20111;-74
2022/05/21 07:42:42;;;;;;;1.33;0.55;;;;;;;31.97;23.99;100188.03;5054531;28;20028;-75
2022/05/21 07:45:11;;;;;;;1.88;0.60;;;;;;;30.58;25.82;100179.69;5020533;28;20513;-74
2022/05/21 07:47:37;;;;;;;1.33;0.60;;;;;;;28.72;29.17;100179.97;5038353;28;20108;-75
2022/05/21 07:50:04;;;;;;;0.68;0.45;;;;;;;27.46;30.80;100189.97;5021463;28;20075;-74
2022/05/21 07:52:30;;;;;;;1.00;0.40;;;;;;;27.16;31.82;100181.47;5056151;28;20032;-75
2022/05/21 07:54:56;;;;;;;0.85;0.43;;;;;;;27.47;31.12;100168.09;5056068;28;20532;-76
2022/05/21 07:57:23;;;;;;;1.30;0.40;;;;;;;27.75;30.77;100171.91;5055707;28;20029;-76
2022/05/21 07:59:48;;;;;;;0.52;0.35;;;;;;;27.81;30.90;100184.13;5037699;28;20471;-76
2022/05/21 08:02:20;;;;;;;2.22;0.30;;;;;;;28.61;29.78;100181.28;5021095;28;20031;-77
2022/05/21 08:04:48;;;;;;;0.50;0.40;;;;;;;29.34;28.03;100186.38;5055970;28;20083;-76
2022/05/21 08:07:15;;;;;;;0.90;0.57;;;;;;;29.72;28.66;100180.53;5021186;28;20036;-76
2022/05/21 08:09:41;;;;;;;0.55;0.52;;;;;;;29.72;27.20;100162.91;5021089;28;20505;-76
2022/05/21 08:12:17;;;;;;;0.55;0.47;;;;;;;28.80;27.71;100192.34;5037413;28;20013;-76
2022/05/21 08:14:45;;;;;;;1.20;0.40;;;;;;;27.81;29.55;100196.63;5055302;28;20056;-76
2022/05/21 08:17:11;;;;;;;1.05;0.50;;;;;;;26.90;30.46;100197.50;5037343;28;20056;-75
2022/05/21 08:19:38;;;;;;;2.47;0.52;;;;;;;27.14;30.88;100192.22;5037469;28;20049;-76
2022/05/21 08:27:33;;;;;;;1.30;0.88;;;;;;;28.89;27.13;100200.41;5055317;28;20071;-76
2022/05/21 08:30:00;;;;;;;0.60;0.50;;;;;;;29.63;26.24;100193.06;5037062;28;20052;-75
2022/05/21 08:32:25;;;;;;;0.63;0.50;;;;;;;29.04;26.69;100200.16;5054784;28;20076;-76
2022/05/21 08:34:53;;;;;;;0.63;0.50;;;;;;;28.06;28.52;100198.66;5037207;28;20060;-76
2022/05/21 08:37:20;;;;;;;0.30;0.30;;;;;;;27.37;29.82;100193.56;5020684;28;20052;-76
2022/05/21 08:40:01;;;;;;;0.93;0.30;;;;;;;26.87;30.53;100212.53;5055189;28;20025;-76
2022/05/21 08:42:38;;;;;;;0.30;0.30;;;;;;;26.76;30.40;100205.00;5037040;28;20025;-74
2022/05/21 08:45:25;;;;;;;10.07;1.65;;;;;;;25.82;32.54;100202.94;5037042;28;20063;-73
2022/05/21 08:48:03;;;;;;;1.08;0.50;;;;;;;25.38;32.62;100206.94;5037106;28;20040;-75
2022/05/21 08:50:33;;;;;;;0.57;0.57;;;;;;;25.32;32.96;100209.25;5036893;28;20067;-75
2022/05/21 08:53:10;;;;;;;0.47;0.47;;;;;;;25.70;31.98;100214.28;5021664;28;20454;-75
2022/05/21 08:55:40;;;;;;;0.68;0.50;;;;;;;26.26;31.08;100217.97;5036963;28;20060;-75
2022/05/21 08:58:43;;;;;;;1.65;0.60;;;;;;;26.76;31.29;100216.69;5037081;28;20036;-75
2022/05/21 09:01:10;;;;;;;0.63;0.60;;;;;;;26.86;30.96;100208.03;5022937;28;20044;-76
2022/05/21 09:03:36;;;;;;;0.63;0.50;;;;;;;26.78;31.50;100211.03;5020065;28;20053;-76
2022/05/21 09:06:09;;;;;;;0.50;0.50;;;;;;;26.85;30.39;100206.47;5036536;28;20131;-75
2022/05/21 09:09:01;;;;;;;1.15;0.63;;;;;;;26.45;31.58;100221.94;5019842;28;20028;-77
2022/05/21 09:11:35;;;;;;;0.38;0.38;;;;;;;25.96;31.42;100224.69;5036269;28;20024;-75
2022/05/21 09:14:15;;;;;;;0.85;0.50;;;;;;;25.93;31.69;100217.91;5036143;28;20044;-75
2022/05/21 09:16:54;;;;;;;3.95;0.63;;;;;;;25.87;32.42;100225.31;5036229;28;20510;-77
2022/05/21 09:19:43;;;;;;;0.75;0.63;;;;;;;25.92;33.06;100222.19;5021608;28;20033;-77
2022/05/21 09:22:13;;;;;;;1.02;0.50;;;;;;;25.85;32.00;100210.53;5036206;28;20033;-74
2022/05/21 09:24:38;;;;;;;1.63;0.43;;;;;;;25.56;32.33;100237.06;5054114;28;20111;-75
2022/05/21 09:27:21;;;;;;;0.93;0.50;;;;;;;25.37;31.51;100239.59;5053735;28;20118;-77
2022/05/21 09:29:46;;;;;;;0.20;0.20;;;;;;;25.49;31.86;100240.75;5021432;28;20039;-75
2022/05/21 09:32:33;;;;;;;0.38;0.38;;;;;;;25.82;30.13;100224.16;5016179;28;20053;-76
2022/05/21 09:35:12;;;;;;;1.48;0.40;;;;;;;25.87;30.32;100239.91;5012708;28;20501;-75
2022/05/21 09:37:40;;;;;;;0.30;0.30;;;;;;;25.16;29.58;100233.97;5012875;28;20034;-76
2022/05/21 09:40:31;;;;;;;1.38;0.57;;;;;;;24.85;32.40;100247.75;4996483;28;20037;-76
2022/05/21 09:45:43;;;;;;;0.60;0.40;;;;;;;24.56;32.93;100246.34;4999373;28;20399;-74
2022/05/21 09:48:08;;;;;;;0.63;0.40;;;;;;;24.37;33.11;100243.00;5012731;28;20033;-75
2022/05/21 09:50:58;;;;;;;1.25;0.52;;;;;;;24.40;34.59;100256.38;5012734;28;20032;-77
2022/05/21 09:53:37;;;;;;;0.40;0.40;;;;;;;24.76;33.02;100244.63;4996774;28;20021;-76
2022/05/21 09:56:33;;;;;;;2.90;0.38;;;;;;;25.36;31.84;100238.03;5012913;28;20121;-76
2022/05/21 09:59:16;;;;;;;0.45;0.45;;;;;;;25.80;31.47;100244.41;4995258;28;20042;-76
2022/05/21 10:02:19;;;;;;;0.95;0.40;;;;;;;25.59;30.10;100252.63;5012700;28;20104;-75
2022/05/21 10:04:56;;;;;;;0.60;0.32;;;;;;;25.09;30.09;100246.41;4996648;28;20442;-77
2022/05/21 10:10:58;;;;;;;1.00;0.60;;;;;;;24.60;31.20;100266.34;5013734;28;20498;-76
2022/05/21 10:13:24;;;;;;;1.00;0.40;;;;;;;24.56;30.89;100271.78;5012901;28;20026;-76
2022/05/21 10:16:23;;;;;;;1.48;0.30;;;;;;;24.43;31.16;100273.47;4996077;28;20109;-76
2022/05/21 10:18:57;;;;;;;1.90;0.35;;;;;;;24.52;31.32;100263.38;5013991;28;20029;-75
2022/05/21 10:21:52;;;;;;;4.05;0.30;;;;;;;24.52;31.02;100277.94;5013051;28;20399;-78
2022/05/21 10:24:42;;;;;;;0.40;0.40;;;;;;;24.67;32.39;100272.16;5013465;28;20406;-76
2022/05/21 10:27:30;;;;;;;0.30;0.30;;;;;;;24.63;31.24;100274.69;5012690;28;20041;-76
2022/05/21 10:30:17;;;;;;;1.20;0.40;;;;;;;25.00;31.76;100266.63;5013479;28;20080;-76
2022/05/21 10:33:08;;;;;;;2.55;0.50;;;;;;;25.13;31.10;100246.03;5033353;28;20067;-74
2022/05/21 10:35:57;;;;;;;4.80;1.63;;;;;;;25.20;30.80;100280.25;5033154;28;20033;-75
2022/05/21 10:38:41;;;;;;;1.15;0.40;;;;;;;25.12;31.52;100256.13;5032041;28;20483;-76
2022/05/21 10:41:24;;;;;;;0.60;0.40;;;;;;;25.14;30.78;100268.00;5032015;28;20044;-76
2022/05/21 10:44:27;;;;;;;0.52;0.43;;;;;;;24.84;30.77;100260.75;5033255;28;20083;-74
2022/05/21 10:47:03;;;;;;;0.52;0.40;;;;;;;24.74;32.28;100270.63;5033042;28;20494;-75
2022/05/21 10:49:59;;;;;;;0.90;0.60;;;;;;;24.65;31.25;100266.16;5036216;28;20025;-75
2022/05/21 10:52:42;;;;;;;1.65;0.40;;;;;;;24.29;32.85;100271.28;5037307;28;20100;-75
2022/05/21 10:55:17;;;;;;;0.63;0.50;;;;;;;24.19;31.96;100261.53;5035779;28;20083;-75
2022/05/21 10:58:13;;;;;;;1.40;0.55;;;;;;;24.15;32.33;100278.56;5037259;28;20116;-75
2022/05/21 11:00:53;;;;;;;0.50;0.40;;;;;;;24.02;34.22;100257.00;5037170;28;20049;-76
2022/05/21 11:03:51;;;;;;;0.90;0.50;;;;;;;23.91;32.57;100251.50;5036947;28;20032;-76
2022/05/21 11:06:36;;;;;;;1.52;0.90;;;;;;;23.58;33.47;100273.59;5035233;28;20038;-76
2022/05/21 11:09:19;;;;;;;0.60;0.50;;;;;;;23.29;34.83;100282.88;5036989;28;20026;-76
2022/05/21 11:11:59;;;;;;;1.17;0.50;;;;;;;23.51;36.32;100276.47;5037250;28;20470;-76
2022/05/21 11:14:38;;;;;;;0.52;0.43;;;;;;;23.61;34.04;100269.56;5035941;28;20025;-75
2022/05/21 11:17:07;;;;;;;1.48;0.63;;;;;;;23.70;33.35;100276.19;5019134;28;20485;-76
2022/05/21 11:20:11;;;;;;;0.60;0.60;;;;;;;23.81;33.08;100284.59;5035409;28;20111;-75
2022/05/21 11:22:46;;;;;;;0.95;0.85;;;;;;;23.79;32.82;100264.81;5035637;28;20021;-75
2022/05/21 11:25:36;;;;;;;2.05;0.30;;;;;;;23.61;34.02;100294.94;5035761;28;20045;-77
2022/05/21 11:28:34;;;;;;;0.30;0.30;;;;;;;23.54;33.69;100292.75;5018753;28;20037;-75
2022/05/21 11:31:08;;;;;;;0.43;0.40;;;;;;;23.71;32.01;100286.47;5029180;28;20054;-75
2022/05/21 11:39:27;;;;;;;0.40;0.38;;;;;;;23.45;33.05;100273.69;5015784;28;20036;-76
2022/05/21 11:42:03;;;;;;;1.25;0.82;;;;;;;23.41;33.54;100287.81;5015327;28;20045;-74
2022/05/21 11:47:31;;;;;;;0.63;0.60;;;;;;;23.86;32.52;100292.41;5015549;28;20508;-77
2022/05/21 11:50:11;;;;;;;0.50;0.50;;;;;;;23.87;32.75;100285.22;5016357;28;20029;-76
2022/05/21 11:52:44;;;;;;;1.88;0.47;;;;;;;23.85;31.93;100293.75;5014919;28;20056;-77
2022/05/21 11:55:25;;;;;;;0.40;0.40;;;;;;;23.77;31.10;100290.03;5014900;28;20052;-76
2022/05/21 11:57:59;;;;;;;2.00;0.60;;;;;;;23.95;31.28;100291.88;5014731;28;20029;-76
2022/05/21 12:00:28;;;;;;;0.52;0.40;;;;;;;24.00;31.36;100290.91;4997010;28;20029;-76
2022/05/21 12:02:56;;;;;;;0.63;0.45;;;;;;;24.20;31.73;100272.63;5014746;28;20045;-74
2022/05/21 12:05:38;;;;;;;2.28;0.50;;;;;;;23.77;32.31;100287.09;5015902;28;20037;-74
2022/05/21 12:08:14;;;;;;;0.45;0.40;;;;;;;23.39;32.18;100284.66;5014719;28;20117;-74
2022/05/21 12:11:04;;;;;;;0.40;0.40;;;;;;;23.25;33.43;100286.09;5014564;28;20172;-76
2022/05/21 12:13:36;;;;;;;0.70;0.55;;;;;;;23.06;33.78;100289.25;5015098;28;20029;-76
2022/05/21 12:16:34;;;;;;;0.57;0.40;;;;;;;23.04;33.16;100288.28;5015994;28;20041;-77
2022/05/21 12:19:01;;;;;;;1.92;0.70;;;;;;;23.04;33.23;100291.19;5014316;28;20038;-77
2022/05/21 12:21:30;;;;;;;0.20;0.20;;;;;;;22.83;32.50;100291.16;4981963;28;20037;-75
2022/05/21 12:23:56;;;;;;;2.35;0.70;;;;;;;22.66;33.29;100261.69;5015530;28;20371;-74
2022/05/21 12:26:24;;;;;;;1.17;0.70;;;;;;;22.36;33.97;100286.16;5015455;28;20069;-76
2022/05/21 12:28:56;;;;;;;1.63;0.63;;;;;;;22.37;34.84;100298.56;5015493;28;20026;-76
2022/05/21 12:31:36;;;;;;;3.38;0.43;;;;;;;22.42;33.96;100305.56;5032871;28;20084;-76